createdAt,value
2017-01-01T00:00:58.916Z,-1.89
2017-01-01T00:01:58.884Z,-1.71
2017-01-01T00:02:58.862Z,-1.7
2017-01-01T00:03:58.850Z,-1.61
2017-01-01T00:04:58.819Z,-1.57
2017-01-01T00:05:58.810Z,-1.68
2017-01-01T00:06:58.781Z,-1.68
2017-01-01T00:07:58.769Z,-1.71
2017-01-01T00:08:58.751Z,-1.64
2017-01-01T00:09:58.736Z,-1.64
2017-01-01T00:10:58.728Z,-1.7
2017-01-01T00:11:58.707Z,-1.72
2017-01-01T00:12:58.678Z,-1.8
2017-01-01T00:13:58.684Z,-1.75
2017-01-01T00:14:59.030Z,-1.9
2017-01-01T00:15:58.629Z,-1.85
2017-01-01T00:16:58.616Z,-1.9
2017-01-01T00:17:58.607Z,-1.72
2017-01-01T00:18:58.582Z,-1.64
2017-01-01T00:19:58.557Z,-1.59
2017-01-01T00:20:58.555Z,-1.56
2017-01-01T00:21:58.522Z,-1.44
2017-01-01T00:22:58.512Z,-1.44
2017-01-01T00:23:58.503Z,-1.44
2017-01-01T00:24:58.476Z,-1.41
2017-01-01T00:25:58.482Z,-1.54
2017-01-01T00:26:58.444Z,-1.54
2017-01-01T00:27:58.420Z,-1.29
2017-01-01T00:28:58.404Z,-1.32
2017-01-01T00:29:58.400Z,-1.33
2017-01-01T00:30:58.366Z,-1.32
2017-01-01T00:31:58.364Z,-1.26
2017-01-01T00:32:58.331Z,-1.32
2017-01-01T00:33:58.323Z,-1.43
2017-01-01T00:34:58.305Z,-1.36
2017-01-01T00:35:58.278Z,-1.31
2017-01-01T00:36:58.273Z,-1.39
2017-01-01T00:37:58.253Z,-1.31
2017-01-01T00:38:58.224Z,-1.32
2017-01-01T00:39:58.212Z,-1.33
2017-01-01T00:40:58.192Z,-1.28
2017-01-01T00:41:58.177Z,-1.23
2017-01-01T00:42:58.167Z,-1.26
2017-01-01T00:43:58.139Z,-1.31
2017-01-01T00:44:58.113Z,-1.35
2017-01-01T00:45:58.104Z,-1.29
2017-01-01T00:46:58.088Z,-1.38
2017-01-01T00:47:58.070Z,-1.32
2017-01-01T00:48:58.048Z,-1.39
2017-01-01T00:49:58.050Z,-1.36
2017-01-01T00:50:58.012Z,-1.41
2017-01-01T00:51:58.002Z,-1.41
2017-01-01T00:52:57.989Z,-1.32
2017-01-01T00:53:57.965Z,-1.46
2017-01-01T00:54:57.942Z,-1.36
2017-01-01T00:55:57.940Z,-1.38
2017-01-01T00:56:57.920Z,-1.43
2017-01-01T00:57:57.893Z,-1.43
2017-01-01T00:58:57.878Z,-1.36
2017-01-01T00:59:57.855Z,-1.36
2017-01-01T01:00:57.833Z,-1.43
2017-01-01T01:01:57.825Z,-1.36
2017-01-01T01:02:57.805Z,-1.29
2017-01-01T01:03:57.777Z,-1.39
2017-01-01T01:04:57.773Z,-1.39
2017-01-01T01:05:57.751Z,-1.49
2017-01-01T01:06:57.734Z,-1.44
2017-01-01T01:07:57.714Z,-1.39
2017-01-01T01:08:57.699Z,-1.36
2017-01-01T01:09:57.687Z,-1.38
2017-01-01T01:10:57.667Z,-1.35
2017-01-01T01:11:57.675Z,-1.44
2017-01-01T01:12:57.626Z,-1.39
2017-01-01T01:13:58.003Z,-1.36
2017-01-01T01:14:57.593Z,-1.54
2017-01-01T01:15:57.580Z,-1.43
2017-01-01T01:16:57.555Z,-1.41
2017-01-01T01:17:57.533Z,-1.38
2017-01-01T01:18:57.905Z,-1.44
2017-01-01T01:19:57.513Z,-1.32
2017-01-01T01:20:57.473Z,-1.43
2017-01-01T01:21:57.471Z,-1.33
2017-01-01T01:22:57.448Z,-1.21
2017-01-01T01:23:57.434Z,-1.29
2017-01-01T01:24:57.411Z,-1.29
2017-01-01T01:25:57.385Z,-1.32
2017-01-01T01:26:57.364Z,-1.39
2017-01-01T01:27:57.353Z,-1.54
2017-01-01T01:28:57.333Z,-1.53
2017-01-01T01:29:57.312Z,-1.46
2017-01-01T01:30:57.302Z,-1.46
2017-01-01T01:31:57.283Z,-1.46
2017-01-01T01:32:57.272Z,-1.41
2017-01-01T01:33:57.247Z,-1.54
2017-01-01T01:34:57.217Z,-1.5
2017-01-01T01:35:57.207Z,-1.47
2017-01-01T01:36:57.181Z,-1.56
2017-01-01T01:37:57.169Z,-1.44
2017-01-01T01:38:57.532Z,-1.39
2017-01-01T01:39:57.140Z,-1.38
2017-01-01T01:40:57.117Z,-1.41
2017-01-01T01:41:57.100Z,-1.56
2017-01-01T01:42:57.077Z,-1.67
2017-01-01T01:43:57.059Z,-1.65
2017-01-01T01:44:57.054Z,-1.68
2017-01-01T01:45:57.019Z,-1.61
2017-01-01T01:46:57.011Z,-1.59
2017-01-01T01:47:56.988Z,-1.62
2017-01-01T01:48:56.967Z,-1.53
2017-01-01T01:49:56.962Z,-1.64
2017-01-01T01:50:56.925Z,-1.59
2017-01-01T01:51:56.904Z,-1.62
2017-01-01T01:52:56.889Z,-1.67
2017-01-01T01:53:56.871Z,-1.64
2017-01-01T01:54:56.871Z,-1.59
2017-01-01T01:55:56.850Z,-1.57
2017-01-01T01:56:56.828Z,-1.65
2017-01-01T01:57:56.792Z,-1.74
2017-01-01T01:58:56.770Z,-1.83
2017-01-01T01:59:56.759Z,-1.78
2017-01-01T02:00:56.738Z,-1.88
2017-01-01T02:01:56.722Z,-1.83
2017-01-01T02:02:56.703Z,-1.8
2017-01-01T02:03:56.678Z,-1.78
2017-01-01T02:04:56.664Z,-1.82
2017-01-01T02:05:56.650Z,-1.88
2017-01-01T02:06:56.625Z,-1.8
2017-01-01T02:07:56.608Z,-1.85
2017-01-01T02:08:56.596Z,-1.86
2017-01-01T02:09:56.578Z,-1.77
2017-01-01T02:10:56.557Z,-1.7
2017-01-01T02:11:56.528Z,-1.59
2017-01-01T02:12:56.516Z,-1.78
2017-01-01T02:13:56.497Z,-1.75
2017-01-01T02:14:56.487Z,-1.86
2017-01-01T02:15:56.460Z,-1.93
2017-01-01T02:16:56.442Z,-1.88
2017-01-01T02:17:56.423Z,-1.9
2017-01-01T02:18:56.399Z,-1.95
2017-01-01T02:19:56.390Z,-1.92
2017-01-01T02:20:56.358Z,-2.08
2017-01-01T02:21:56.351Z,-2.07
2017-01-01T02:22:56.334Z,-2.04
2017-01-01T02:23:56.319Z,-1.98
2017-01-01T02:24:56.289Z,-2.01
2017-01-01T02:25:56.273Z,-2.01
2017-01-01T02:26:56.281Z,-2.04
2017-01-01T02:27:56.237Z,-2.03
2017-01-01T02:28:56.222Z,-2.08
2017-01-01T02:29:56.202Z,-2.22
2017-01-01T02:30:56.169Z,-2.21
2017-01-01T02:31:56.153Z,-2.13
2017-01-01T02:32:56.133Z,-2.22
2017-01-01T02:33:56.124Z,-2.21
2017-01-01T02:34:56.113Z,-2.24
2017-01-01T02:35:56.078Z,-2.22
2017-01-01T02:36:56.058Z,-2.25
2017-01-01T02:37:56.052Z,-2.14
2017-01-01T02:38:56.035Z,-2.16
2017-01-01T02:39:56.008Z,-2.07
2017-01-01T02:40:55.992Z,-2.13
2017-01-01T02:41:55.970Z,-2.03
2017-01-01T02:42:55.948Z,-2.08
2017-01-01T02:43:55.929Z,-2.18
2017-01-01T02:44:55.910Z,-2.14
2017-01-01T02:45:56.282Z,-2.19
2017-01-01T02:46:55.877Z,-2.25
2017-01-01T02:47:55.852Z,-2.33
2017-01-01T02:48:55.833Z,-2.33
2017-01-01T02:49:55.823Z,-2.32
2017-01-01T02:50:55.805Z,-2.4
2017-01-01T02:51:55.783Z,-2.46
2017-01-01T02:52:55.752Z,-2.61
2017-01-01T02:53:55.730Z,-2.62
2017-01-01T02:54:55.709Z,-2.55
2017-01-01T02:55:55.694Z,-2.64
2017-01-01T02:56:55.684Z,-2.62
2017-01-01T02:57:55.661Z,-2.62
2017-01-01T02:58:55.641Z,-2.61
2017-01-01T02:59:55.619Z,-2.51
2017-01-01T03:00:55.606Z,-2.33
2017-01-01T03:01:55.585Z,-2.32
2017-01-01T03:02:55.570Z,-2.35
2017-01-01T03:03:55.544Z,-2.46
2017-01-01T03:04:55.519Z,-2.32
2017-01-01T03:05:55.498Z,-2.56
2017-01-01T03:06:55.485Z,-2.71
2017-01-01T03:07:55.461Z,-2.66
2017-01-01T03:08:55.445Z,-2.74
2017-01-01T03:09:55.423Z,-2.83
2017-01-01T03:10:55.411Z,-2.83
2017-01-01T03:11:55.384Z,-2.89
2017-01-01T03:12:55.355Z,-2.95
2017-01-01T03:13:55.344Z,-2.89
2017-01-01T03:14:55.325Z,-2.97
2017-01-01T03:15:55.298Z,-2.93
2017-01-01T03:16:55.289Z,-2.93
2017-01-01T03:17:55.273Z,-2.8
2017-01-01T03:18:55.249Z,-2.84
2017-01-01T03:19:55.228Z,-2.72
2017-01-01T03:20:55.206Z,-2.72
2017-01-01T03:21:55.185Z,-2.74
2017-01-01T03:22:55.161Z,-2.83
2017-01-01T03:23:55.149Z,-2.76
2017-01-01T03:24:55.127Z,-2.64
2017-01-01T03:25:55.112Z,-2.53
2017-01-01T03:26:55.080Z,-2.62
2017-01-01T03:27:55.069Z,-2.64
2017-01-01T03:28:55.048Z,-2.69
2017-01-01T03:29:55.033Z,-2.68
2017-01-01T03:30:55.010Z,-2.74
2017-01-01T03:31:54.987Z,-2.89
2017-01-01T03:32:54.958Z,-3.13
2017-01-01T03:33:54.957Z,-3.1
2017-01-01T03:34:54.935Z,-3.08
2017-01-01T03:35:54.914Z,-3.04
2017-01-01T03:36:54.900Z,-3.07
2017-01-01T03:37:54.868Z,-2.87
2017-01-01T03:38:54.842Z,-2.89
2017-01-01T03:39:54.823Z,-2.87
2017-01-01T03:40:54.818Z,-2.83
2017-01-01T03:41:54.795Z,-2.93
2017-01-01T03:42:54.770Z,-3.08
2017-01-01T03:43:54.757Z,-2.98
2017-01-01T03:44:54.732Z,-2.95
2017-01-01T03:45:54.705Z,-2.95
2017-01-01T03:46:54.723Z,-3.1
2017-01-01T03:47:54.670Z,-2.95
2017-01-01T03:48:54.653Z,-2.94
2017-01-01T03:49:54.640Z,-2.9
2017-01-01T03:50:54.602Z,-2.77
2017-01-01T03:51:54.583Z,-2.72
2017-01-01T03:52:54.563Z,-2.72
2017-01-01T03:53:54.546Z,-2.68
2017-01-01T03:54:54.522Z,-2.69
2017-01-01T03:55:54.506Z,-2.56
2017-01-01T03:56:54.491Z,-2.64
2017-01-01T03:57:54.468Z,-2.65
2017-01-01T03:58:54.460Z,-2.64
2017-01-01T03:59:54.430Z,-2.59
2017-01-01T04:00:54.420Z,-2.58
2017-01-01T04:01:54.386Z,-2.59
2017-01-01T04:02:54.360Z,-2.77
2017-01-01T04:03:54.354Z,-2.66
2017-01-01T04:04:54.338Z,-2.65
2017-01-01T04:05:54.307Z,-2.71
2017-01-01T04:06:54.294Z,-2.72
2017-01-01T04:07:54.273Z,-2.83
2017-01-01T04:08:54.250Z,-2.8
2017-01-01T04:09:54.235Z,-2.89
2017-01-01T04:10:54.199Z,-2.77
2017-01-01T04:11:54.225Z,-2.72
2017-01-01T04:12:54.169Z,-2.69
2017-01-01T04:13:54.145Z,-2.69
2017-01-01T04:14:54.131Z,-2.74
2017-01-01T04:15:54.112Z,-2.84
2017-01-01T04:16:54.098Z,-2.69
2017-01-01T04:17:54.068Z,-2.82
2017-01-01T04:18:54.047Z,-2.83
2017-01-01T04:19:54.037Z,-2.66
2017-01-01T04:20:54.011Z,-2.8
2017-01-01T04:21:53.993Z,-2.72
2017-01-01T04:22:53.972Z,-2.74
2017-01-01T04:23:53.946Z,-2.71
2017-01-01T04:24:53.928Z,-2.84
2017-01-01T04:25:53.908Z,-2.72
2017-01-01T04:26:53.892Z,-2.76
2017-01-01T04:27:53.863Z,-2.68
2017-01-01T04:28:53.854Z,-2.65
2017-01-01T04:29:53.836Z,-2.64
2017-01-01T04:30:53.804Z,-2.72
2017-01-01T04:31:53.785Z,-2.72
2017-01-01T04:32:53.761Z,-2.69
2017-01-01T04:33:53.753Z,-2.82
2017-01-01T04:34:53.728Z,-2.83
2017-01-01T04:35:53.702Z,-2.8
2017-01-01T04:36:53.689Z,-2.9
2017-01-01T04:37:53.671Z,-2.86
2017-01-01T04:38:53.648Z,-2.87
2017-01-01T04:39:53.641Z,-2.83
2017-01-01T04:40:53.605Z,-2.8
2017-01-01T04:41:53.593Z,-2.74
2017-01-01T04:42:53.565Z,-2.77
2017-01-01T04:43:53.562Z,-2.66
2017-01-01T04:44:53.541Z,-2.77
2017-01-01T04:45:53.507Z,-2.76
2017-01-01T04:46:53.488Z,-2.65
2017-01-01T04:47:53.471Z,-2.74
2017-01-01T04:48:53.447Z,-2.74
2017-01-01T04:49:53.426Z,-2.68
2017-01-01T04:50:53.409Z,-2.71
2017-01-01T04:51:53.392Z,-2.76
2017-01-01T04:52:53.370Z,-2.68
2017-01-01T04:53:53.357Z,-2.86
2017-01-01T04:54:53.337Z,-2.74
2017-01-01T04:55:53.314Z,-2.68
2017-01-01T04:56:53.280Z,-2.74
2017-01-01T04:57:53.268Z,-2.77
2017-01-01T04:58:53.247Z,-2.76
2017-01-01T04:59:53.243Z,-2.86
2017-01-01T05:00:53.216Z,-2.72
2017-01-01T05:01:53.187Z,-2.76
2017-01-01T05:02:53.166Z,-2.8
2017-01-01T05:03:53.140Z,-2.71
2017-01-01T05:04:53.128Z,-2.71
2017-01-01T05:05:53.107Z,-2.77
2017-01-01T05:06:53.097Z,-2.77
2017-01-01T05:07:53.076Z,-2.65
2017-01-01T05:08:53.047Z,-2.68
2017-01-01T05:09:53.034Z,-2.62
2017-01-01T05:10:53.013Z,-2.72
2017-01-01T05:11:52.995Z,-2.64
2017-01-01T05:12:52.969Z,-2.68
2017-01-01T05:13:52.948Z,-2.69
2017-01-01T05:14:52.930Z,-2.69
2017-01-01T05:15:52.919Z,-2.69
2017-01-01T05:16:52.893Z,-2.64
2017-01-01T05:17:52.866Z,-2.84
2017-01-01T05:18:52.851Z,-2.68
2017-01-01T05:19:52.822Z,-2.84
2017-01-01T05:20:52.808Z,-2.69
2017-01-01T05:21:52.890Z,-2.74
2017-01-01T05:22:52.764Z,-2.82
2017-01-01T05:23:52.751Z,-2.9
2017-01-01T05:24:52.729Z,-2.94
2017-01-01T05:25:52.703Z,-2.9
2017-01-01T05:26:52.680Z,-2.9
2017-01-01T05:27:52.668Z,-2.79
2017-01-01T05:28:52.646Z,-2.97
2017-01-01T05:29:52.634Z,-2.94
2017-01-01T05:30:52.599Z,-2.98
2017-01-01T05:31:52.580Z,-3.01
2017-01-01T05:32:52.566Z,-3.07
2017-01-01T05:33:52.547Z,-3.07
2017-01-01T05:34:52.521Z,-3.12
2017-01-01T05:35:52.500Z,-3.05
2017-01-01T05:36:52.488Z,-3.13
2017-01-01T05:37:52.464Z,-3.16
2017-01-01T05:38:52.454Z,-3.22
2017-01-01T05:39:52.819Z,-3.33
2017-01-01T05:40:52.406Z,-3.19
2017-01-01T05:41:52.387Z,-3.22
2017-01-01T05:42:52.359Z,-3.25
2017-01-01T05:43:52.342Z,-3.21
2017-01-01T05:44:52.328Z,-3.18
2017-01-01T05:45:52.309Z,-3.22
2017-01-01T05:46:52.288Z,-3.12
2017-01-01T05:47:52.268Z,-3.26
2017-01-01T05:48:52.243Z,-3.21
2017-01-01T05:49:52.212Z,-3.28
2017-01-01T05:50:52.212Z,-3.33
2017-01-01T05:51:52.180Z,-3.22
2017-01-01T05:52:52.168Z,-3.16
2017-01-01T05:53:52.171Z,-3.22
2017-01-01T05:54:52.125Z,-3.26
2017-01-01T05:55:52.092Z,-3.26
2017-01-01T05:56:52.076Z,-3.28
2017-01-01T05:57:52.054Z,-3.26
2017-01-01T05:58:52.041Z,-3.28
2017-01-01T05:59:52.011Z,-3.22
2017-01-01T06:00:51.993Z,-3.23
2017-01-01T06:01:51.979Z,-3.23
2017-01-01T06:02:51.954Z,-3.28
2017-01-01T06:03:51.958Z,-3.23
2017-01-01T06:04:51.918Z,-3.33
2017-01-01T06:05:51.882Z,-3.26
2017-01-01T06:06:51.874Z,-3.25
2017-01-01T06:07:51.851Z,-3.22
2017-01-01T06:08:51.826Z,-3.19
2017-01-01T06:09:51.801Z,-3.15
2017-01-01T06:10:51.787Z,-3.19
2017-01-01T06:11:51.778Z,-3.3
2017-01-01T06:12:51.748Z,-3.25
2017-01-01T06:13:51.726Z,-3.26
2017-01-01T06:14:51.718Z,-3.21
2017-01-01T06:15:51.687Z,-3.25
2017-01-01T06:16:51.658Z,-3.21
2017-01-01T06:17:51.652Z,-3.3
2017-01-01T06:18:51.625Z,-3.25
2017-01-01T06:19:51.604Z,-3.31
2017-01-01T06:20:51.578Z,-3.25
2017-01-01T06:21:51.941Z,-3.34
2017-01-01T06:22:51.546Z,-3.34
2017-01-01T06:23:51.520Z,-3.3
2017-01-01T06:24:51.500Z,-3.33
2017-01-01T06:25:51.510Z,-3.34
2017-01-01T06:26:51.459Z,-3.31
2017-01-01T06:27:51.443Z,-3.34
2017-01-01T06:28:51.421Z,-3.37
2017-01-01T06:29:51.400Z,-3.36
2017-01-01T06:30:51.384Z,-3.28
2017-01-01T06:31:51.361Z,-3.28
2017-01-01T06:32:51.341Z,-3.31
2017-01-01T06:33:51.315Z,-3.25
2017-01-01T06:34:51.307Z,-3.33
2017-01-01T06:35:51.273Z,-3.3
2017-01-01T06:36:51.247Z,-3.34
2017-01-01T06:37:51.233Z,-3.3
2017-01-01T06:38:51.211Z,-3.31
2017-01-01T06:39:51.195Z,-3.28
2017-01-01T06:40:51.174Z,-3.28
2017-01-01T06:41:51.146Z,-3.18
2017-01-01T06:42:51.137Z,-3.19
2017-01-01T06:43:51.111Z,-3.18
2017-01-01T06:44:51.090Z,-3.23
2017-01-01T06:45:51.067Z,-3.26
2017-01-01T06:46:51.040Z,-3.22
2017-01-01T06:47:51.029Z,-3.23
2017-01-01T06:48:50.999Z,-3.21
2017-01-01T06:49:50.988Z,-3.19
2017-01-01T06:50:50.966Z,-3.18
2017-01-01T06:51:50.953Z,-3.22
2017-01-01T06:52:50.933Z,-3.22
2017-01-01T06:53:50.909Z,-3.23
2017-01-01T06:54:50.875Z,-3.31
2017-01-01T06:55:50.866Z,-3.23
2017-01-01T06:56:50.857Z,-3.3
2017-01-01T06:57:50.824Z,-3.3
2017-01-01T06:58:50.796Z,-3.25
2017-01-01T06:59:50.786Z,-3.22
2017-01-01T07:00:50.769Z,-3.28
2017-01-01T07:01:50.748Z,-3.23
2017-01-01T07:02:50.728Z,-3.23
2017-01-01T07:03:50.729Z,-3.23
2017-01-01T07:04:50.678Z,-3.13
2017-01-01T07:05:50.653Z,-3.13
2017-01-01T07:06:50.640Z,-3.1
2017-01-01T07:07:50.619Z,-3.04
2017-01-01T07:08:50.623Z,-3.08
2017-01-01T07:09:50.574Z,-2.93
2017-01-01T07:10:50.563Z,-2.95
2017-01-01T07:11:50.547Z,-2.97
2017-01-01T07:12:50.517Z,-2.95
2017-01-01T07:13:50.495Z,-3.01
2017-01-01T07:14:50.486Z,-3.01
2017-01-01T07:15:50.478Z,-2.9
2017-01-01T07:16:50.434Z,-2.87
2017-01-01T07:17:50.406Z,-2.79
2017-01-01T07:18:50.396Z,-2.82
2017-01-01T07:19:50.384Z,-2.87
2017-01-01T07:20:50.358Z,-2.76
2017-01-01T07:21:50.341Z,-2.8
2017-01-01T07:22:50.306Z,-2.71
2017-01-01T07:23:50.325Z,-2.69
2017-01-01T07:24:50.273Z,-2.76
2017-01-01T07:25:50.244Z,-2.68
2017-01-01T07:26:50.233Z,-2.74
2017-01-01T07:27:50.214Z,-2.71
2017-01-01T07:28:50.192Z,-2.77
2017-01-01T07:29:50.172Z,-2.74
2017-01-01T07:30:50.153Z,-2.71
2017-01-01T07:31:50.129Z,-2.69
2017-01-01T07:32:50.113Z,-2.61
2017-01-01T07:33:50.099Z,-2.64
2017-01-01T07:34:50.071Z,-2.53
2017-01-01T07:35:50.051Z,-2.48
2017-01-01T07:36:50.031Z,-2.4
2017-01-01T07:37:50.009Z,-2.44
2017-01-01T07:38:49.992Z,-2.41
2017-01-01T07:39:49.970Z,-2.41
2017-01-01T07:40:49.944Z,-2.43
2017-01-01T07:41:49.930Z,-2.25
2017-01-01T07:42:49.910Z,-2.24
2017-01-01T07:43:49.882Z,-2.08
2017-01-01T07:44:49.879Z,-2.19
2017-01-01T07:45:49.855Z,-2.21
2017-01-01T07:46:49.830Z,-2.21
2017-01-01T07:47:49.815Z,-2.08
2017-01-01T07:48:49.785Z,-2.1
2017-01-01T07:49:49.774Z,-2.1
2017-01-01T07:50:49.751Z,-2.06
2017-01-01T07:51:49.723Z,-2.04
2017-01-01T07:52:49.706Z,-2.01
2017-01-01T07:53:49.700Z,-1.9
2017-01-01T07:54:49.671Z,-2.13
2017-01-01T07:55:49.648Z,-1.93
2017-01-01T07:56:49.638Z,-2.04
2017-01-01T07:57:49.604Z,-1.85
2017-01-01T07:58:49.602Z,-1.62
2017-01-01T07:59:49.577Z,-1.64
2017-01-01T08:00:49.553Z,-1.71
2017-01-01T08:01:49.544Z,-1.82
2017-01-01T08:02:49.509Z,-1.85
2017-01-01T08:03:49.500Z,-1.75
2017-01-01T08:04:49.469Z,-1.56
2017-01-01T08:05:49.453Z,-1.67
2017-01-01T08:06:49.438Z,-1.75
2017-01-01T08:07:49.419Z,-1.56
2017-01-01T08:08:49.406Z,-1.68
2017-01-01T08:09:49.383Z,-1.83
2017-01-01T08:10:49.349Z,-1.7
2017-01-01T08:11:49.339Z,-1.62
2017-01-01T08:12:49.324Z,-1.35
2017-01-01T08:13:49.310Z,-1.51
2017-01-01T08:14:49.661Z,-1.67
2017-01-01T08:15:49.264Z,-1.67
2017-01-01T08:16:49.258Z,-1.65
2017-01-01T08:17:49.227Z,-1.83
2017-01-01T08:18:49.585Z,-1.68
2017-01-01T08:19:49.172Z,-1.59
2017-01-01T08:20:49.172Z,-1.75
2017-01-01T08:21:49.148Z,-1.82
2017-01-01T08:22:49.124Z,-1.86
2017-01-01T08:23:49.286Z,-1.8
2017-01-01T08:24:49.281Z,-1.64
2017-01-01T08:25:49.071Z,-1.68
2017-01-01T08:26:49.043Z,-1.72
2017-01-01T08:27:49.024Z,-1.72
2017-01-01T08:28:49.009Z,-1.7
2017-01-01T08:29:48.991Z,-1.62
2017-01-01T08:30:48.954Z,-1.62
2017-01-01T08:31:48.943Z,-1.61
2017-01-01T08:32:48.923Z,-1.68
2017-01-01T08:33:48.902Z,-1.51
2017-01-01T08:34:48.889Z,-1.61
2017-01-01T08:35:48.855Z,-1.59
2017-01-01T08:36:48.839Z,-1.57
2017-01-01T08:37:48.824Z,-1.33
2017-01-01T08:38:48.811Z,-1.51
2017-01-01T08:39:48.782Z,-1.39
2017-01-01T08:40:48.758Z,-1.44
2017-01-01T08:41:48.743Z,-1.41
2017-01-01T08:42:48.714Z,-1.43
2017-01-01T08:43:48.724Z,-1.13
2017-01-01T08:44:48.687Z,-1.31
2017-01-01T08:45:48.658Z,-1.36
2017-01-01T08:46:48.636Z,-1.43
2017-01-01T08:47:48.625Z,-1.38
2017-01-01T08:48:48.606Z,-1.41
2017-01-01T08:49:48.582Z,-1.49
2017-01-01T08:50:48.579Z,-1.33
2017-01-01T08:51:48.552Z,-1.31
2017-01-01T08:52:48.526Z,-1.28
2017-01-01T08:53:48.510Z,-1
2017-01-01T08:54:48.520Z,-1.17
2017-01-01T08:55:48.474Z,-0.92
2017-01-01T08:56:48.448Z,-1.32
2017-01-01T08:57:48.430Z,-1.28
2017-01-01T08:58:48.418Z,-1.07
2017-01-01T08:59:48.389Z,-1.23
2017-01-01T09:00:48.374Z,-1.21
2017-01-01T09:01:48.363Z,-1.17
2017-01-01T09:02:48.336Z,-1.32
2017-01-01T09:03:48.318Z,-0.86
2017-01-01T09:04:48.302Z,-1.11
2017-01-01T09:05:48.271Z,-0.78
2017-01-01T09:06:48.267Z,-0.7
2017-01-01T09:07:48.624Z,-0.63
2017-01-01T09:08:48.218Z,-0.8
2017-01-01T09:09:48.193Z,-0.95
2017-01-01T09:10:48.183Z,-0.7
2017-01-01T09:11:48.165Z,-0.45
2017-01-01T09:12:48.145Z,-0.27
2017-01-01T09:13:48.121Z,-0.44
2017-01-01T09:14:48.102Z,-0.39
2017-01-01T09:15:48.078Z,-0.44
2017-01-01T09:16:48.059Z,-0.37
2017-01-01T09:17:48.052Z,-0.39
2017-01-01T09:18:48.233Z,-0.03
2017-01-01T09:19:48.209Z,0.01
2017-01-01T09:20:47.996Z,-0.3
2017-01-01T09:21:47.968Z,-0.42
2017-01-01T09:22:47.958Z,-0.85
2017-01-01T09:23:47.943Z,-0.8
2017-01-01T09:24:47.924Z,-0.13
2017-01-01T09:25:47.909Z,0.12
2017-01-01T09:26:47.885Z,0.26
2017-01-01T09:27:47.880Z,0.34
2017-01-01T09:28:47.848Z,0.81
2017-01-01T09:29:47.831Z,0.53
2017-01-01T09:30:47.812Z,0.43
2017-01-01T09:31:47.794Z,0.84
2017-01-01T09:32:47.768Z,0.62
2017-01-01T09:33:47.756Z,-0.01
2017-01-01T09:34:47.745Z,-0.05
2017-01-01T09:35:47.721Z,-0.31
2017-01-01T09:36:47.709Z,0.17
2017-01-01T09:37:47.702Z,0.57
2017-01-01T09:38:47.672Z,0.51
2017-01-01T09:39:47.656Z,0.48
2017-01-01T09:40:47.649Z,0.95
2017-01-01T09:41:47.621Z,1.2
2017-01-01T09:42:47.602Z,1.08
2017-01-01T09:43:47.589Z,0.71
2017-01-01T09:44:47.570Z,0.26
2017-01-01T09:45:47.556Z,0.3
2017-01-01T09:46:47.530Z,0.45
2017-01-01T09:47:47.513Z,0.64
2017-01-01T09:48:47.504Z,0.31
2017-01-01T09:49:47.481Z,-0.14
2017-01-01T09:50:47.460Z,0.13
2017-01-01T09:51:47.441Z,-0.08
2017-01-01T09:52:47.424Z,0.45
2017-01-01T09:53:47.405Z,0.35
2017-01-01T09:54:47.393Z,0.67
2017-01-01T09:55:47.380Z,0.13
2017-01-01T09:56:47.357Z,0.16
2017-01-01T09:57:47.350Z,0.23
2017-01-01T09:58:47.703Z,0.28
2017-01-01T09:59:47.309Z,0.01
2017-01-01T10:00:47.277Z,0.38
2017-01-01T10:01:47.268Z,0.25
2017-01-01T10:02:47.258Z,0.15
2017-01-01T10:03:47.223Z,-0.03
2017-01-01T10:04:47.206Z,0.52
2017-01-01T10:05:47.210Z,0.53
2017-01-01T10:06:47.172Z,0.34
2017-01-01T10:07:47.164Z,0.93
2017-01-01T10:08:47.146Z,1.26
2017-01-01T10:09:47.134Z,1.35
2017-01-01T10:10:47.110Z,1.82
2017-01-01T10:11:47.101Z,2.01
2017-01-01T10:12:47.082Z,2.26
2017-01-01T10:13:47.068Z,2.63
2017-01-01T10:14:47.036Z,2.81
2017-01-01T10:15:47.025Z,3.01
2017-01-01T10:16:47.215Z,2.12
2017-01-01T10:17:46.993Z,1.43
2017-01-01T10:18:46.986Z,1.61
2017-01-01T10:19:46.963Z,0.88
2017-01-01T10:20:46.945Z,0.89
2017-01-01T10:21:46.944Z,0.95
2017-01-01T10:22:46.910Z,1.26
2017-01-01T10:23:46.924Z,1.82
2017-01-01T10:24:46.876Z,1.46
2017-01-01T10:25:46.865Z,1.54
2017-01-01T10:26:46.849Z,1.39
2017-01-01T10:27:46.829Z,1.42
2017-01-01T10:28:46.815Z,0.62
2017-01-01T10:29:46.797Z,0.17
2017-01-01T10:30:46.782Z,0.26
2017-01-01T10:31:46.761Z,0.41
2017-01-01T10:32:46.739Z,0.48
2017-01-01T10:33:46.774Z,-0.05
2017-01-01T10:34:46.710Z,-0.09
2017-01-01T10:35:46.694Z,0.13
2017-01-01T10:36:46.669Z,0.44
2017-01-01T10:37:46.655Z,0.38
2017-01-01T10:38:46.643Z,0.71
2017-01-01T10:39:46.626Z,0.96
2017-01-01T10:40:46.613Z,0.74
2017-01-01T10:41:46.601Z,0.96
2017-01-01T10:42:46.573Z,0.62
2017-01-01T10:43:46.562Z,0.48
2017-01-01T10:44:46.549Z,0.88
2017-01-01T10:45:46.527Z,0.95
2017-01-01T10:46:46.504Z,1.18
2017-01-01T10:47:46.486Z,0.96
2017-01-01T10:48:46.462Z,0.41
2017-01-01T10:49:46.465Z,0.77
2017-01-01T10:50:46.449Z,0.53
2017-01-01T10:51:46.419Z,0.48
2017-01-01T10:52:46.418Z,0.23
2017-01-01T10:53:46.377Z,0.38
2017-01-01T10:54:46.383Z,0.37
2017-01-01T10:55:46.350Z,0.67
2017-01-01T10:56:46.336Z,0.62
2017-01-01T10:57:46.315Z,0.75
2017-01-01T10:58:46.309Z,0.72
2017-01-01T10:59:46.273Z,1.14
2017-01-01T11:00:46.266Z,1.14
2017-01-01T11:01:46.244Z,1.25
2017-01-01T11:02:46.227Z,1.61
2017-01-01T11:03:46.220Z,1.28
2017-01-01T11:04:46.197Z,1.16
2017-01-01T11:05:46.186Z,0.84
2017-01-01T11:06:46.161Z,0.49
2017-01-01T11:07:46.145Z,0.62
2017-01-01T11:08:46.133Z,0.4
2017-01-01T11:09:46.160Z,0.7
2017-01-01T11:10:46.095Z,0.74
2017-01-01T11:11:46.079Z,1.24
2017-01-01T11:12:46.053Z,1.92
2017-01-01T11:13:46.038Z,2.07
2017-01-01T11:14:46.176Z,2.65
2017-01-01T11:15:46.026Z,2.71
2017-01-01T11:16:45.989Z,2.14
2017-01-01T11:17:45.980Z,2.25
2017-01-01T11:18:45.955Z,2.53
2017-01-01T11:19:45.951Z,2.65
2017-01-01T11:20:45.931Z,3.01
2017-01-01T11:21:45.911Z,3.37
2017-01-01T11:22:45.905Z,2.92
2017-01-01T11:23:45.889Z,2.5
2017-01-01T11:24:45.873Z,2.29
2017-01-01T11:25:45.858Z,2.07
2017-01-01T11:26:45.831Z,1.56
2017-01-01T11:27:45.832Z,1.44
2017-01-01T11:28:45.802Z,1.64
2017-01-01T11:29:45.788Z,2.09
2017-01-01T11:30:45.783Z,2.2
2017-01-01T11:31:45.756Z,2.5
2017-01-01T11:32:45.741Z,2.51
2017-01-01T11:33:45.727Z,2.73
2017-01-01T11:34:45.709Z,3.22
2017-01-01T11:35:45.692Z,2.81
2017-01-01T11:36:45.674Z,1.89
2017-01-01T11:37:45.675Z,0.9
2017-01-01T11:38:45.641Z,0.51
2017-01-01T11:39:45.639Z,0.19
2017-01-01T11:40:45.616Z,0.45
2017-01-01T11:41:45.599Z,0.81
2017-01-01T11:42:45.590Z,1.24
2017-01-01T11:43:45.567Z,1.61
2017-01-01T11:44:45.550Z,2.14
2017-01-01T11:45:45.541Z,2.19
2017-01-01T11:46:45.517Z,2
2017-01-01T11:47:45.500Z,2.07
2017-01-01T11:48:45.862Z,2.44
2017-01-01T11:49:45.473Z,2
2017-01-01T11:50:45.451Z,1.47
2017-01-01T11:51:45.435Z,1.2
2017-01-01T11:52:45.414Z,1.14
2017-01-01T11:53:45.413Z,1.6
2017-01-01T11:54:45.390Z,1.63
2017-01-01T11:55:45.381Z,1.82
2017-01-01T11:56:45.357Z,1.6
2017-01-01T11:57:45.343Z,2.08
2017-01-01T11:58:45.329Z,2.68
2017-01-01T11:59:45.317Z,2.8
2017-01-01T12:00:45.350Z,2.77
2017-01-01T12:01:45.277Z,2.2
2017-01-01T12:02:45.266Z,1.89
2017-01-01T12:03:45.239Z,1.39
2017-01-01T12:04:45.225Z,1.11
2017-01-01T12:05:45.213Z,1.7
2017-01-01T12:06:45.199Z,1.49
2017-01-01T12:07:45.177Z,0.93
2017-01-01T12:08:45.159Z,1.18
2017-01-01T12:09:45.154Z,1.08
2017-01-01T12:10:45.128Z,0.89
2017-01-01T12:11:45.112Z,1.11
2017-01-01T12:12:45.110Z,1.42
2017-01-01T12:13:45.083Z,1.68
2017-01-01T12:14:45.073Z,1.21
2017-01-01T12:15:45.060Z,0.84
2017-01-01T12:16:45.034Z,0.9
2017-01-01T12:17:45.027Z,0.16
2017-01-01T12:18:45.007Z,0.35
2017-01-01T12:19:44.992Z,0.3
2017-01-01T12:20:44.976Z,0.86
2017-01-01T12:21:44.977Z,1.43
2017-01-01T12:22:44.943Z,1.2
2017-01-01T12:23:44.927Z,0.64
2017-01-01T12:24:44.900Z,0.37
2017-01-01T12:25:44.889Z,0.38
2017-01-01T12:26:44.874Z,0.78
2017-01-01T12:27:44.861Z,0.35
2017-01-01T12:28:44.831Z,0.12
2017-01-01T12:29:44.818Z,-0.09
2017-01-01T12:30:44.798Z,0.15
2017-01-01T12:31:44.787Z,0.43
2017-01-01T12:32:44.764Z,0.2
2017-01-01T12:33:44.749Z,0.08
2017-01-01T12:34:44.729Z,0.49
2017-01-01T12:35:44.719Z,0.19
2017-01-01T12:36:44.689Z,0.2
2017-01-01T12:37:44.677Z,0.16
2017-01-01T12:38:44.660Z,0.34
2017-01-01T12:39:44.643Z,0.2
2017-01-01T12:40:44.635Z,0.08
2017-01-01T12:41:44.614Z,0.13
2017-01-01T12:42:44.588Z,-0.17
2017-01-01T12:43:44.571Z,-0.16
2017-01-01T12:44:44.557Z,0.15
2017-01-01T12:45:44.548Z,-0.16
2017-01-01T12:46:44.514Z,-0.08
2017-01-01T12:47:44.505Z,0.15
2017-01-01T12:48:44.483Z,0.23
2017-01-01T12:49:44.467Z,0.33
2017-01-01T12:50:44.450Z,0.17
2017-01-01T12:51:44.425Z,0.2
2017-01-01T12:52:44.411Z,0.19
2017-01-01T12:53:44.394Z,0.16
2017-01-01T12:54:44.380Z,0.07
2017-01-01T12:55:44.361Z,0.15
2017-01-01T12:56:44.347Z,0.05
2017-01-01T12:57:44.332Z,-0.05
2017-01-01T12:58:44.312Z,0.33
2017-01-01T12:59:44.289Z,0.71
2017-01-01T13:00:44.267Z,0.62
2017-01-01T13:01:44.267Z,0.57